< < Back
Terminal Aerodrome Forecast


Current Version              Previous Versions:   1  2  3  4  5  6  7  8  9  

Terminal Aerodrome Forecast

020
FTUS42 KGSP 261740
TAFAVL
TAF
KAVL 261740Z 2618/2718 35007KT P6SM BKN015
     FM270200 VRB03KT P6SM SCT020 BKN040
     FM270600 32005KT P6SM VCSH BKN020
     FM271400 33012KT P6SM BKN030
     FM271600 32014G24KT P6SM BKN040=



Latest METAR

824
SAUS70 KWBC 261700 RRL
MTRAVL
METAR KAVL 261654Z 35007KT 10SM FEW014 08/03 A3001 RMK AO2 SLP158
T00830028


USA.gov is the U.S. government's official web portal to all federal, state and local government web resources and services.